Time;durP1;ratioP1;P1;durP2;ratioP2;P2;SDS_P1;SDS_P2;PMS_P1;PMS_P2;Temp;Humidity;BMP_temperature;BMP_pressure;BME280_temperature;BME280_humidity;BME280_pressure;Samples;Min_cycle;Max_cycle;Signal;HPM_P1;HPM_P2
2022/02/19 00:02:07;;;;;;;;;0.33;0.33;;;;;6.85;58.23;101026.06;5024753;28;46672;-87
2022/02/19 00:04:33;;;;;;;;;0.00;0.00;;;;;6.29;58.06;100949.03;5033890;28;45562;-87
2022/02/19 00:06:58;;;;;;;;;1.75;0.25;;;;;6.18;57.93;100938.00;5033902;28;45455;-84
2022/02/19 00:09:23;;;;;;;;;0.50;0.00;;;;;6.56;58.25;101008.81;5033679;28;45718;-86
2022/02/19 00:11:50;;;;;;;;;1.00;0.00;;;;;7.03;58.61;101089.75;5014536;28;47003;-85
2022/02/19 00:14:16;;;;;;;;;2.50;0.00;;;;;7.20;58.67;101120.31;5025963;28;45959;-87
2022/02/19 00:16:41;;;;;;;;;1.00;1.00;;;;;6.11;58.74;100935.00;5015959;28;45459;-83
2022/02/19 00:19:07;;;;;;;;;0.00;0.00;;;;;7.11;58.79;101104.13;5033122;28;45523;-84
2022/02/19 00:21:32;;;;;;;;;0.50;0.00;;;;;7.16;58.85;101125.28;5033269;28;46411;-84
2022/02/19 00:23:58;;;;;;;;;1.75;1.00;;;;;6.53;58.93;101022.59;5036575;28;45715;-85
2022/02/19 00:26:23;;;;;;;;;0.50;0.00;;;;;6.11;58.91;100972.41;5015674;28;45736;-85
2022/02/19 00:28:49;;;;;;;;;1.75;0.75;;;;;6.89;59.06;101091.59;5027480;28;45936;-84
2022/02/19 00:31:14;;;;;;;;;1.00;0.00;;;;;6.68;58.88;101070.44;5019293;28;48357;-83
2022/02/19 00:33:39;;;;;;;;;0.00;0.00;;;;;6.75;59.03;101069.06;5034149;28;45574;-86
2022/02/19 00:36:05;;;;;;;;;0.00;0.00;;;;;7.05;59.32;101126.44;5015054;28;45877;-86
2022/02/19 00:38:30;;;;;;;;;0.00;0.00;;;;;6.27;58.98;100989.81;5014758;28;45672;-86
2022/02/19 00:40:55;;;;;;;;;0.75;0.75;;;;;6.07;59.34;100965.22;5028270;28;45672;-87
2022/02/19 00:43:21;;;;;;;;;3.25;0.00;;;;;6.85;59.28;101107.06;5017461;28;45874;-86
2022/02/19 00:45:49;;;;;;;;;0.75;0.50;;;;;7.00;59.64;101149.69;5034665;28;45246;-83
2022/02/19 00:48:17;;;;;;;;;2.75;1.00;;;;;6.89;59.38;101127.28;5033869;28;45384;-84
2022/02/19 00:50:43;;;;;;;;;0.50;0.00;;;;;6.02;59.89;100978.84;5032466;28;46498;-82
2022/02/19 00:53:08;;;;;;;;;0.75;0.75;;;;;6.54;59.79;101066.16;5030384;28;45667;-83
2022/02/19 00:55:34;;;;;;;;;1.50;0.00;;;;;6.02;59.93;100982.34;5014834;28;45495;-83
2022/02/19 00:57:59;;;;;;;;;3.00;1.50;;;;;5.88;59.93;100960.66;5025228;28;45733;-84
2022/02/19 01:00:24;;;;;;;;;1.00;0.50;;;;;6.71;59.86;101115.00;5046314;28;45535;-82
2022/02/19 01:02:50;;;;;;;;;0.25;0.00;;;;;6.24;60.12;101054.88;5014969;28;46094;-83
2022/02/19 01:05:18;;;;;;;;;0.00;0.00;;;;;5.97;60.02;101014.19;5015179;28;45336;-83
2022/02/19 01:07:44;;;;;;;;;0.00;0.00;;;;;6.35;60.24;101076.38;5012612;28;45545;-87
2022/02/19 01:10:09;;;;;;;;;1.75;0.00;;;;;5.94;60.23;101038.38;5012142;28;47307;-84
2022/02/19 01:12:35;;;;;;;;;1.50;1.00;;;;;5.60;60.35;100968.59;5034379;28;45815;-87
2022/02/19 01:15:01;;;;;;;;;1.00;1.00;;;;;6.61;60.68;101143.16;5014752;28;45539;-85
2022/02/19 01:17:26;;;;;;;;;1.00;0.00;;;;;6.27;60.74;101091.63;5033253;28;45547;-83
2022/02/19 01:19:51;;;;;;;;;2.25;1.25;;;;;6.67;60.58;101157.44;5033513;28;46204;-84
2022/02/19 01:22:17;;;;;;;;;1.50;1.25;;;;;6.46;60.34;101122.28;5008579;28;45436;-84
2022/02/19 01:24:42;;;;;;;;;1.75;1.50;;;;;5.65;60.80;100980.19;5031494;28;45428;-84
2022/02/19 01:27:08;;;;;;;;;1.00;0.00;;;;;6.01;61.04;101047.44;5014147;28;45348;-82
2022/02/19 01:29:33;;;;;;;;;0.00;0.00;;;;;5.59;60.79;100977.22;5032065;28;45506;-85
2022/02/19 01:31:58;;;;;;;;;1.75;1.75;;;;;6.39;61.02;101136.69;5032450;28;45397;-85
2022/02/19 01:34:24;;;;;;;;;0.75;0.75;;;;;6.14;61.20;101086.50;5007647;28;45433;-84
2022/02/19 01:36:50;;;;;;;;;0.50;0.25;;;;;6.51;61.75;101140.81;5020113;28;45755;-84
2022/02/19 01:39:16;;;;;;;;;4.25;1.25;;;;;6.38;61.43;101118.31;4995763;28;47894;-82
2022/02/19 01:41:41;;;;;;;;;0.00;0.00;;;;;6.23;61.57;101109.63;5012952;28;45572;-84
2022/02/19 01:44:09;;;;;;;;;1.00;1.00;;;;;6.63;61.52;101163.28;5013405;28;45880;-84
2022/02/19 01:46:35;;;;;;;;;1.00;1.00;;;;;5.76;61.41;101016.41;5017953;28;45538;-85
2022/02/19 01:49:02;;;;;;;;;1.00;0.75;;;;;6.65;61.72;101172.13;5030944;28;45464;-84
2022/02/19 01:51:33;;;;;;;;;1.00;1.00;;;;;5.62;61.95;101003.50;5033237;28;45730;-85
2022/02/19 01:54:07;;;;;;;;;1.75;1.00;;;;;6.08;61.95;101089.66;5032865;28;45436;-85
2022/02/19 01:56:36;;;;;;;;;1.00;1.00;;;;;5.73;62.17;101035.41;5020728;28;45658;-83
2022/02/19 01:59:05;;;;;;;;;1.00;0.25;;;;;6.57;62.06;101183.84;5021043;28;46743;-88
2022/02/19 02:01:30;;;;;;;;;1.25;0.50;;;;;6.18;62.25;101120.69;5026399;28;45809;-86
2022/02/19 02:03:56;;;;;;;;;1.00;0.00;;;;;6.22;62.37;101129.59;5016417;28;45331;-86
2022/02/19 02:06:24;;;;;;;;;0.00;0.00;;;;;6.26;62.38;101123.75;5037074;28;45711;-89
2022/02/19 02:08:49;;;;;;;;;3.50;2.00;;;;;6.53;62.67;101187.09;5035894;28;46947;-87
2022/02/19 02:11:16;;;;;;;;;1.00;0.00;;;;;5.70;62.62;101035.22;5003754;28;45762;-87
2022/02/19 02:13:42;;;;;;;;;2.00;0.75;;;;;5.48;62.64;100993.97;5032408;28;45487;-89
2022/02/19 02:16:07;;;;;;;;;2.25;1.00;;;;;6.16;62.59;101127.53;5032702;28;45604;-85
2022/02/19 02:18:33;;;;;;;;;1.00;1.00;;;;;5.98;62.55;101095.16;5032038;28;46235;-85
2022/02/19 02:20:58;;;;;;;;;0.75;0.75;;;;;5.80;62.73;101063.63;5034303;28;45673;-86
2022/02/19 02:23:24;;;;;;;;;0.50;0.25;;;;;5.14;62.51;100952.88;5033391;28;45661;-86
2022/02/19 02:25:52;;;;;;;;;0.75;0.50;;;;;5.43;62.85;101003.22;5021814;28;45458;-88
2022/02/19 02:28:19;;;;;;;;;1.00;0.00;;;;;6.28;62.45;101153.44;5013007;28;46684;-85
2022/02/19 02:30:45;;;;;;;;;1.00;0.75;;;;;6.05;63.03;101114.66;5032981;28;45702;-87
2022/02/19 02:33:13;;;;;;;;;1.00;1.00;;;;;6.45;62.73;101199.72;5031787;28;45501;-85
2022/02/19 02:35:39;;;;;;;;;0.25;0.25;;;;;6.43;63.14;101177.81;5015142;28;45373;-88
2022/02/19 02:38:04;;;;;;;;;1.00;1.00;;;;;6.44;63.06;101183.94;5033659;28;45498;-87
2022/02/19 02:40:34;;;;;;;;;0.00;0.00;;;;;6.19;62.84;101155.50;5032248;28;45691;-86
2022/02/19 02:42:59;;;;;;;;;1.75;1.00;;;;;5.74;63.18;101078.91;5029930;28;45459;-82
2022/02/19 02:45:25;;;;;;;;;0.75;0.75;;;;;5.88;63.22;101106.72;5019585;28;45694;-86
2022/02/19 02:47:50;;;;;;;;;2.00;1.00;;;;;5.50;63.44;101060.09;5012599;28;47302;-84
2022/02/19 02:50:16;;;;;;;;;2.00;0.75;;;;;5.91;63.29;101109.56;5031333;28;45774;-83
2022/02/19 02:52:42;;;;;;;;;1.00;1.00;;;;;5.84;63.46;101096.00;5030809;28;45479;-83
2022/02/19 02:55:09;;;;;;;;;2.00;1.00;;;;;5.13;63.14;100982.34;5006154;28;45776;-84
2022/02/19 02:57:35;;;;;;;;;0.00;0.00;;;;;6.17;63.60;101160.66;5013935;28;47374;-87
2022/02/19 03:00:02;;;;;;;;;3.75;1.50;;;;;6.38;63.47;101209.69;5013532;28;45384;-84
2022/02/19 03:02:29;;;;;;;;;1.00;1.00;;;;;6.36;63.65;101213.94;5031963;28;45419;-85
2022/02/19 03:04:57;;;;;;;;;2.00;1.00;;;;;5.39;63.78;101064.69;5014407;28;45621;-86
2022/02/19 03:07:22;;;;;;;;;1.00;0.75;;;;;5.05;63.78;100990.50;5029767;28;45493;-86
2022/02/19 03:09:47;;;;;;;;;1.00;1.00;;;;;5.83;64.08;101130.72;5032217;28;45453;-88
2022/02/19 03:12:13;;;;;;;;;1.00;1.00;;;;;4.70;63.91;100937.19;5033554;28;45718;-88
2022/02/19 03:14:38;;;;;;;;;1.33;1.00;;;;;5.54;64.12;101069.91;5016194;28;45435;-86
2022/02/19 03:17:04;;;;;;;;;1.75;1.75;;;;;5.68;64.07;101108.16;5032062;28;45454;-84
2022/02/19 03:19:29;;;;;;;;;0.25;0.25;;;;;5.11;64.07;101016.91;5014020;28;45815;-87
2022/02/19 03:21:54;;;;;;;;;1.00;0.67;;;;;5.56;64.29;101093.47;4996342;28;45612;-88
2022/02/19 03:24:20;;;;;;;;;1.00;1.00;;;;;6.13;64.56;101208.25;5012504;28;45535;-83
2022/02/19 03:26:45;;;;;;;;;0.25;0.25;;;;;4.94;64.56;101009.78;5010284;28;45743;-85
2022/02/19 03:29:10;;;;;;;;;1.00;1.00;;;;;5.69;64.57;101145.53;5004502;28;45462;-82
2022/02/19 03:31:36;;;;;;;;;0.50;0.50;;;;;4.95;64.66;101022.91;5010552;28;45646;-86
2022/02/19 03:34:01;;;;;;;;;0.75;0.00;;;;;5.22;64.62;101078.41;4993146;28;46074;-83
2022/02/19 03:36:27;;;;;;;;;2.00;1.00;;;;;5.59;64.32;101143.19;5014583;28;45458;-84
2022/02/19 03:38:52;;;;;;;;;1.00;0.75;;;;;5.59;64.89;101156.22;5019680;28;45670;-88
2022/02/19 03:41:18;;;;;;;;;3.00;1.00;;;;;5.56;65.02;101167.34;5022770;28;45734;-83
2022/02/19 03:43:43;;;;;;;;;0.25;0.00;;;;;4.65;64.92;100983.75;5030403;28;45429;-82
2022/02/19 03:46:08;;;;;;;;;2.00;1.00;;;;;4.92;64.99;101046.13;5030573;28;45412;-82
2022/02/19 03:48:34;;;;;;;;;0.00;0.00;;;;;5.42;65.01;101153.50;5014392;28;45473;-85
2022/02/19 03:50:59;;;;;;;;;1.00;0.50;;;;;5.12;65.01;101095.19;5030046;28;45501;-89
2022/02/19 03:53:24;;;;;;;;;2.25;2.00;;;;;5.16;65.10;101104.06;5015640;28;45843;-88
2022/02/19 03:55:50;;;;;;;;;0.25;0.00;;;;;5.40;65.30;101155.09;5030882;28;45628;-86
2022/02/19 03:58:15;;;;;;;;;4.00;0.67;;;;;5.05;65.23;101082.56;5031881;28;45833;-85
2022/02/19 04:00:40;;;;;;;;;1.00;0.00;;;;;4.73;65.46;101044.13;5013811;28;45719;-89
2022/02/19 04:03:08;;;;;;;;;0.75;0.25;;;;;5.37;65.76;101165.34;5023631;28;46173;-82
2022/02/19 04:05:33;;;;;;;;;0.50;0.50;;;;;5.58;65.45;101199.66;5017802;28;45685;-84
2022/02/19 04:07:58;;;;;;;;;1.25;1.00;;;;;5.01;65.29;101114.44;5022874;28;45522;-83
2022/02/19 04:10:24;;;;;;;;;0.67;0.00;;;;;5.17;65.37;101150.16;5031986;28;45429;-83
2022/02/19 04:12:49;;;;;;;;;1.50;1.00;;;;;4.63;65.20;101037.44;5035609;28;45644;-84
2022/02/19 04:15:14;;;;;;;;;1.00;1.00;;;;;5.40;65.27;101178.56;5032638;28;48210;-85
2022/02/19 04:17:40;;;;;;;;;0.67;0.67;;;;;4.65;65.25;101050.53;5025744;28;45711;-82
2022/02/19 04:20:07;;;;;;;;;1.00;0.00;;;;;5.75;65.26;101247.63;5016759;28;46204;-83
2022/02/19 04:22:32;;;;;;;;;0.50;0.00;;;;;5.28;65.59;101163.88;5027761;28;45603;-82
2022/02/19 04:24:58;;;;;;;;;0.00;0.00;;;;;5.37;65.22;101196.63;5034377;28;45586;-82
2022/02/19 04:27:23;;;;;;;;;1.25;0.75;;;;;5.66;65.44;101236.63;5024600;28;45663;-88
2022/02/19 04:29:48;;;;;;;;;1.25;0.00;;;;;4.71;65.47;101079.56;5004496;28;45934;-84
2022/02/19 04:32:14;;;;;;;;;1.50;0.25;;;;;5.16;65.38;101170.09;4996348;28;45401;-83
2022/02/19 04:34:40;;;;;;;;;1.50;1.00;;;;;5.13;65.48;101175.13;5023184;28;46553;-84
2022/02/19 04:37:05;;;;;;;;;0.50;0.50;;;;;5.28;65.66;101201.25;5027123;28;45863;-82
2022/02/19 04:39:31;;;;;;;;;0.50;0.50;;;;;5.26;65.48;101196.72;5028952;28;45510;-82
2022/02/19 04:41:56;;;;;;;;;1.75;1.25;;;;;5.14;65.66;101187.34;5033438;28;45632;-82
2022/02/19 04:44:22;;;;;;;;;0.75;0.75;;;;;4.51;65.70;101082.59;5015712;28;46967;-83
2022/02/19 04:46:47;;;;;;;;;1.00;0.00;;;;;5.56;65.39;101255.09;5015241;28;45607;-85
2022/02/19 04:49:13;;;;;;;;;1.00;0.00;;;;;5.12;65.64;101202.00;5015968;28;45444;-83
2022/02/19 04:51:39;;;;;;;;;2.00;2.00;;;;;4.93;65.59;101165.16;5014050;28;45439;-83
2022/02/19 04:54:04;;;;;;;;;1.00;0.00;;;;;5.03;65.45;101188.38;5021675;28;45663;-84
2022/02/19 04:56:31;;;;;;;;;1.25;1.00;;;;;4.98;66.24;101183.69;5015631;28;45669;-87
2022/02/19 04:58:56;;;;;;;;;2.25;0.50;;;;;5.34;65.83;101239.81;5017633;28;45429;-83
2022/02/19 05:01:22;;;;;;;;;1.00;0.75;;;;;5.22;65.78;101231.22;5015820;28;45403;-82
2022/02/19 05:03:47;;;;;;;;;2.00;1.00;;;;;5.56;65.89;101296.81;5033719;28;45860;-84
2022/02/19 05:06:13;;;;;;;;;4.00;1.00;;;;;5.75;66.06;101338.00;5034376;28;45611;-86
2022/02/19 05:08:40;;;;;;;;;0.00;0.00;;;;;4.85;66.29;101189.81;5026122;28;45621;-83
2022/02/19 05:11:06;;;;;;;;;2.75;2.00;;;;;5.24;65.84;101263.50;5022145;28;45422;-82
2022/02/19 05:13:31;;;;;;;;;1.00;1.00;;;;;4.96;65.83;101216.53;5021028;28;46391;-84
2022/02/19 05:15:57;;;;;;;;;2.00;0.50;;;;;4.95;65.70;101213.03;5034181;28;45494;-82
2022/02/19 05:18:22;;;;;;;;;0.75;0.75;;;;;5.13;65.84;101240.28;5015248;28;45514;-83
2022/02/19 05:20:47;;;;;;;;;0.00;0.00;;;;;5.00;65.97;101218.53;5023858;28;45465;-85
2022/02/19 05:23:13;;;;;;;;;2.00;1.25;;;;;5.25;65.92;101263.59;5011897;28;45460;-86
2022/02/19 05:25:40;;;;;;;;;1.00;1.00;;;;;5.51;65.82;101304.34;5015090;28;45446;-84
2022/02/19 05:28:07;;;;;;;;;2.00;1.50;;;;;5.74;65.49;101362.28;5023233;28;45335;-83
2022/02/19 05:30:32;;;;;;;;;0.50;0.00;;;;;5.23;65.90;101269.53;5026936;28;45516;-82
2022/02/19 05:32:58;;;;;;;;;1.00;0.00;;;;;5.25;65.76;101273.13;5002377;28;46961;-86
2022/02/19 05:35:23;;;;;;;;;1.00;0.00;;;;;5.62;65.82;101342.47;5012828;28;45969;-88
2022/02/19 05:37:48;;;;;;;;;0.00;0.00;;;;;4.97;65.84;101226.13;5029966;28;45411;-85
2022/02/19 05:40:14;;;;;;;;;2.50;0.75;;;;;4.96;65.89;101240.88;5016566;28;45620;-85
2022/02/19 05:42:39;;;;;;;;;2.00;1.75;;;;;4.97;65.94;101229.66;5033722;28;45720;-86
2022/02/19 05:45:05;;;;;;;;;1.00;0.00;;;;;4.59;65.96;101162.09;5031794;28;45408;-87
2022/02/19 05:47:30;;;;;;;;;0.25;0.25;;;;;5.34;66.04;101300.66;5033460;28;45032;-87
2022/02/19 05:49:58;;;;;;;;;1.00;1.00;;;;;5.13;66.02;101266.31;5033011;28;45742;-85
2022/02/19 05:52:24;;;;;;;;;1.00;1.00;;;;;5.03;66.11;101247.41;5034437;28;46113;-83
2022/02/19 05:54:52;;;;;;;;;0.00;0.00;;;;;5.37;66.36;101316.53;5033027;28;45460;-87
2022/02/19 05:57:18;;;;;;;;;1.00;0.00;;;;;5.50;66.42;101353.78;5035074;28;45367;-90
2022/02/19 05:59:44;;;;;;;;;1.00;0.25;;;;;4.59;66.20;101185.53;5015096;28;45852;-83
2022/02/19 06:02:09;;;;;;;;;2.00;0.00;;;;;4.35;66.46;101150.97;5014247;28;47152;-83
2022/02/19 06:04:34;;;;;;;;;0.00;0.00;;;;;4.90;66.38;101254.41;5024571;28;45582;-83
2022/02/19 06:07:00;;;;;;;;;0.00;0.00;;;;;4.79;66.41;101245.00;5027328;28;45556;-87
2022/02/19 06:09:25;;;;;;;;;1.00;1.00;;;;;4.44;66.24;101161.09;5031625;28;45646;-89
2022/02/19 06:11:50;;;;;;;;;1.00;0.50;;;;;5.03;66.38;101276.97;5031156;28;46291;-82
2022/02/19 06:14:16;;;;;;;;;0.00;0.00;;;;;4.10;66.21;101105.13;5034455;28;45863;-82
2022/02/19 06:16:41;;;;;;;;;1.25;1.00;;;;;5.41;66.60;101349.78;5015492;28;45839;-87
2022/02/19 06:19:06;;;;;;;;;1.33;0.33;;;;;4.96;66.18;101271.22;5025699;28;45400;-84
2022/02/19 06:21:32;;;;;;;;;1.50;0.25;;;;;5.41;66.47;101349.78;5030692;28;46728;-83
2022/02/19 06:23:58;;;;;;;;;2.75;2.75;;;;;4.96;66.42;101287.75;5012946;28;45901;-86
2022/02/19 06:26:23;;;;;;;;;3.00;1.50;;;;;4.57;66.51;101229.66;5033039;28;45804;-88
2022/02/19 06:28:48;;;;;;;;;0.33;0.33;;;;;4.77;66.57;101251.78;5012894;28;45422;-83
2022/02/19 06:31:14;;;;;;;;;2.00;1.50;;;;;4.93;66.54;101292.78;5017953;28;45803;-85
2022/02/19 06:33:39;;;;;;;;;2.00;2.00;;;;;4.79;67.08;101268.44;5023715;28;45586;-83
2022/02/19 06:36:05;;;;;;;;;2.00;1.00;;;;;4.78;66.49;101279.66;5019351;28;45510;-88
2022/02/19 06:38:30;;;;;;;;;0.25;0.25;;;;;3.75;66.69;101101.88;5004623;28;45433;-82
2022/02/19 06:40:56;;;;;;;;;2.00;1.75;;;;;4.56;66.77;101250.38;5029744;28;46315;-81
2022/02/19 06:43:21;;;;;;;;;3.00;2.00;;;;;4.56;66.30;101263.41;5031262;28;45408;-87
2022/02/19 06:45:46;;;;;;;;;1.75;1.25;;;;;4.10;66.87;101198.78;5029835;28;45515;-86
2022/02/19 06:48:12;;;;;;;;;1.00;1.00;;;;;4.03;67.16;101196.53;5028224;28;45674;-85
2022/02/19 06:50:37;;;;;;;;;1.25;1.00;;;;;4.29;67.00;101246.84;5009112;28;47221;-87
2022/02/19 06:53:02;;;;;;;;;2.00;1.25;;;;;4.91;67.05;101356.88;5007195;28;45605;-82
2022/02/19 06:55:28;;;;;;;;;1.00;1.00;;;;;4.27;67.30;101264.03;5014497;28;45558;-82
2022/02/19 06:57:53;;;;;;;;;1.50;0.75;;;;;4.40;67.37;101283.19;5010576;28;45991;-88
2022/02/19 07:00:19;;;;;;;;;2.25;1.25;;;;;4.57;67.27;101323.34;5036976;28;45517;-87
2022/02/19 07:02:44;;;;;;;;;2.25;1.00;;;;;4.75;67.58;101361.88;5036403;28;45382;-86
2022/02/19 07:05:10;;;;;;;;;0.75;0.50;;;;;5.08;67.39;101428.34;5020284;28;45393;-88
2022/02/19 07:07:36;;;;;;;;;1.00;1.00;;;;;4.49;67.21;101337.56;5016756;28;45372;-90
2022/02/19 07:10:06;;;;;;;;;1.25;0.75;;;;;4.79;67.47;101385.63;5034658;28;45659;-89
2022/02/19 07:12:32;;;;;;;;;1.00;1.00;;;;;4.34;67.35;101311.41;5034791;28;45302;-86
2022/02/19 07:14:57;;;;;;;;;4.00;3.00;;;;;4.70;67.48;101366.75;5012492;28;45406;-86
2022/02/19 07:17:23;;;;;;;;;0.33;0.33;;;;;4.91;67.72;101401.16;5031201;28;45515;-89
2022/02/19 07:19:48;;;;;;;;;1.33;1.33;;;;;4.72;67.57;101359.94;5012246;28;47201;-87
2022/02/19 07:22:13;;;;;;;;;1.00;1.00;;;;;3.56;67.67;101155.22;5029824;28;45405;-88
2022/02/19 07:24:39;;;;;;;;;3.00;1.50;;;;;5.05;67.45;101436.84;5030491;28;45800;-89
2022/02/19 07:27:04;;;;;;;;;2.00;1.00;;;;;4.67;67.47;101348.31;5030578;28;45572;-86
2022/02/19 07:29:30;;;;;;;;;2.50;2.50;;;;;4.71;67.60;101339.00;5029614;28;45464;-90
2022/02/19 07:31:55;;;;;;;;;2.75;1.00;;;;;5.25;67.64;101451.22;5012633;28;45612;-87
2022/02/19 07:34:21;;;;;;;;;1.00;0.75;;;;;4.20;67.48;101257.53;5031133;28;45416;-89
2022/02/19 07:36:47;;;;;;;;;1.75;1.00;;;;;5.05;67.39;101412.50;5029026;28;45575;-90
2022/02/19 07:39:12;;;;;;;;;3.50;1.00;;;;;5.31;67.46;101458.53;5011608;28;47376;-88
2022/02/19 07:41:38;;;;;;;;;3.75;1.75;;;;;5.36;67.47;101444.13;5030151;28;45403;-88
2022/02/19 07:44:05;;;;;;;;;3.00;2.75;;;;;5.06;67.10;101383.03;5029661;28;45367;-86
2022/02/19 07:46:30;;;;;;;;;5.00;2.75;;;;;4.76;67.16;101354.16;5033876;28;45471;-90
2022/02/19 07:48:56;;;;;;;;;1.50;1.50;;;;;5.24;67.24;101433.78;5033092;28;46490;-88
2022/02/19 07:59:33;;;;;;;;;2.00;2.00;;;;;5.55;67.31;101491.47;5033127;28;45793;-89
2022/02/19 08:01:59;;;;;;;;;2.00;1.00;;;;;5.07;66.85;101405.69;5033104;28;45518;-88
2022/02/19 08:04:24;;;;;;;;;1.00;1.00;;;;;5.44;66.98;101459.47;5034054;28;45631;-90
2022/02/19 08:06:50;;;;;;;;;2.00;2.00;;;;;5.12;66.74;101405.22;5032421;28;45310;-89
2022/02/19 08:09:15;;;;;;;;;2.00;1.75;;;;;5.67;66.99;101505.34;5015427;28;48001;-87
2022/02/19 08:11:40;;;;;;;;;1.00;1.00;;;;;5.48;66.86;101460.59;5032746;28;45333;-87
2022/02/19 08:14:06;;;;;;;;;2.00;2.00;;;;;5.15;67.08;101396.69;5033052;28;45503;-88
2022/02/19 08:16:32;;;;;;;;;2.00;1.50;;;;;5.54;66.97;101466.19;5015678;28;45380;-90
2022/02/19 08:18:58;;;;;;;;;2.00;1.00;;;;;5.80;66.44;101511.34;5032949;28;45582;-87
2022/02/19 08:21:27;;;;;;;;;2.50;1.00;;;;;5.64;66.79;101476.44;5015015;28;45364;-89
2022/02/19 08:23:53;;;;;;;;;1.50;1.50;;;;;4.75;66.55;101305.47;5014398;28;45389;-89
2022/02/19 08:26:24;;;;;;;;;1.00;1.00;;;;;5.95;66.56;101510.66;5033389;28;45654;-86
2022/02/19 08:28:51;;;;;;;;;2.00;1.00;;;;;5.22;66.24;101383.28;5032172;28;46132;-89
2022/02/19 08:31:17;;;;;;;;;1.00;1.00;;;;;5.41;66.41;101394.09;5015322;28;45553;-90
2022/02/19 08:33:42;;;;;;;;;1.75;1.00;;;;;5.80;66.23;101453.97;5014936;28;45404;-87
2022/02/19 08:36:08;;;;;;;;;1.50;1.00;;;;;5.97;65.98;101489.91;5033211;28;45403;-90
2022/02/19 08:38:33;;;;;;;;;2.25;1.00;;;;;4.30;66.08;101179.28;5032621;28;46164;-87
2022/02/19 08:40:58;;;;;;;;;2.00;1.50;;;;;6.10;66.04;101487.28;5032609;28;45306;-89
2022/02/19 08:43:24;;;;;;;;;0.25;0.00;;;;;5.58;65.74;101397.81;5033189;28;45396;-89
2022/02/19 08:45:49;;;;;;;;;2.75;1.00;;;;;5.56;66.00;101375.94;5032270;28;45558;-88
2022/02/19 08:48:15;;;;;;;;;1.75;1.75;;;;;6.26;66.08;101517.00;5033187;28;46000;-89
2022/02/19 08:50:41;;;;;;;;;0.75;0.75;;;;;6.31;66.28;101499.91;5032334;28;45344;-88
2022/02/19 08:53:07;;;;;;;;;3.00;1.00;;;;;5.98;65.84;101444.75;5033081;28;45372;-89
2022/02/19 08:55:32;;;;;;;;;2.00;1.75;;;;;5.99;65.67;101456.97;5032817;28;45693;-88
2022/02/19 08:57:58;;;;;;;;;0.75;0.75;;;;;6.03;65.93;101445.06;5031208;28;45514;-89
2022/02/19 09:00:23;;;;;;;;;2.00;1.75;;;;;5.60;65.43;101364.91;5014692;28;45392;-87
2022/02/19 09:02:49;;;;;;;;;2.00;2.00;;;;;6.23;65.54;101470.69;5032763;28;45645;-90
2022/02/19 09:05:16;;;;;;;;;2.00;1.50;;;;;6.45;65.28;101493.84;5032827;28;45219;-88
2022/02/19 09:07:42;;;;;;;;;1.75;1.00;;;;;5.68;64.93;101353.28;5031640;28;47355;-88
2022/02/19 09:10:10;;;;;;;;;2.25;1.50;;;;;5.62;65.10;101325.91;5032256;28;45543;-84
2022/02/19 09:12:37;;;;;;;;;1.50;0.50;;;;;6.77;65.29;101524.59;5032511;28;45409;-89
2022/02/19 09:15:04;;;;;;;;;1.50;1.50;;;;;6.63;64.96;101499.31;5032581;28;45572;-87
2022/02/19 09:17:29;;;;;;;;;4.50;3.00;;;;;6.51;65.28;101481.19;5014870;28;48466;-89
2022/02/19 09:19:55;;;;;;;;;2.00;1.75;;;;;5.83;64.85;101355.94;5031790;28;45566;-87
2022/02/19 09:22:20;;;;;;;;;1.00;1.00;;;;;6.14;64.73;101416.22;5032241;28;45450;-87
2022/02/19 09:24:45;;;;;;;;;1.67;1.67;;;;;6.65;64.81;101489.84;5014220;28;45772;-85
2022/02/19 09:27:11;;;;;;;;;0.00;0.00;;;;;6.76;64.64;101491.44;5031772;28;46355;-90
2022/02/19 09:29:36;;;;;;;;;1.33;1.33;;;;;6.67;64.66;101467.38;5032117;28;45587;-90
2022/02/19 09:32:01;;;;;;;;;2.00;1.75;;;;;7.08;64.42;101521.25;5032213;28;45422;-88
2022/02/19 09:34:27;;;;;;;;;3.50;1.00;;;;;6.07;64.59;101330.53;5032307;28;45411;-88
2022/02/19 09:36:53;;;;;;;;;3.00;2.25;;;;;6.97;64.49;101497.97;5031307;28;45422;-88
2022/02/19 09:39:19;;;;;;;;;1.00;1.00;;;;;7.18;63.97;101515.75;5032100;28;45345;-88
2022/02/19 09:41:47;;;;;;;;;1.00;1.00;;;;;7.23;64.19;101524.78;5013449;28;45416;-88
2022/02/19 09:44:13;;;;;;;;;3.00;2.00;;;;;7.13;64.19;101497.19;5014064;28;45496;-88
2022/02/19 09:46:39;;;;;;;;;2.00;1.00;;;;;6.37;63.85;101356.72;5031617;28;46353;-85
2022/02/19 09:49:06;;;;;;;;;2.25;1.25;;;;;6.88;63.89;101428.56;5031788;28;45394;-89
2022/02/19 09:51:32;;;;;;;;;1.00;1.00;;;;;7.06;63.57;101444.47;5014072;28;45606;-83
2022/02/19 09:53:58;;;;;;;;;2.00;1.25;;;;;7.02;63.73;101424.19;5013938;28;45578;-88
2022/02/19 09:56:27;;;;;;;;;1.00;1.00;;;;;6.88;63.33;101394.59;5031751;28;46226;-88
2022/02/19 09:58:54;;;;;;;;;2.50;1.75;;;;;7.64;62.95;101510.69;5013683;28;45715;-88
2022/02/19 10:01:21;;;;;;;;;0.00;0.00;;;;;6.84;63.24;101363.88;5030591;28;45460;-89
2022/02/19 10:03:56;;;;;;;;;0.00;0.00;;;;;7.72;62.89;101506.75;5031286;28;45440;-90
2022/02/19 10:06:27;;;;;;;;;1.00;1.00;;;;;6.51;62.67;101303.63;5031605;28;46144;-88
2022/02/19 10:09:17;;;;;;;;;1.00;1.00;;;;;7.69;62.66;101485.69;5030945;28;45565;-90
2022/02/19 10:11:47;;;;;;;;;2.00;2.00;;;;;7.78;62.57;101499.25;5030611;28;45344;-87
2022/02/19 10:14:25;;;;;;;;;2.00;1.00;;;;;7.93;62.40;101518.50;5031611;28;45459;-88
2022/02/19 10:17:08;;;;;;;;;1.75;1.25;;;;;7.40;62.05;101416.88;5013311;28;47345;-88
2022/02/19 10:20:00;;;;;;;;;2.00;0.75;;;;;7.36;62.25;101395.69;5030904;28;46140;-88
2022/02/19 10:22:39;;;;;;;;;1.50;1.50;;;;;7.54;62.48;101402.00;5012919;28;45484;-87
2022/02/19 10:25:16;;;;;;;;;1.75;1.00;;;;;7.94;62.43;101457.47;5031258;28;45377;-91
2022/02/19 10:27:44;;;;;;;;;2.00;1.75;;;;;8.24;62.10;101488.81;5012694;28;47303;-89
2022/02/19 10:30:11;;;;;;;;;1.00;1.00;;;;;7.33;61.73;101333.66;5032092;28;45826;-90
2022/02/19 10:32:56;;;;;;;;;2.00;1.50;;;;;8.34;61.47;101485.88;5031036;28;45921;-87
2022/02/19 10:35:33;;;;;;;;;1.00;1.00;;;;;8.38;61.77;101487.91;5031059;28;45596;-86
2022/02/19 10:38:02;;;;;;;;;1.00;1.00;;;;;8.43;61.35;101494.28;5030220;28;45529;-87
2022/02/19 10:40:29;;;;;;;;;2.75;1.25;;;;;8.52;61.06;101494.78;5030800;28;45801;-90
2022/02/19 10:42:57;;;;;;;;;2.75;1.50;;;;;8.07;60.92;101395.31;5030133;28;45523;-86
2022/02/19 10:45:24;;;;;;;;;1.00;0.00;;;;;7.67;60.71;101315.50;5013429;28;45471;-85
2022/02/19 10:47:50;;;;;;;;;3.00;1.00;;;;;8.08;60.85;101376.16;5030487;28;46748;-90
2022/02/19 10:50:18;;;;;;;;;2.00;1.25;;;;;8.11;60.67;101373.72;5012107;28;45413;-87
2022/02/19 10:52:51;;;;;;;;;1.50;0.75;;;;;8.43;60.50;101423.56;5030444;28;45456;-85
2022/02/19 10:55:23;;;;;;;;;3.00;1.00;;;;;8.36;60.01;101403.06;5030457;28;45444;-85
2022/02/19 10:57:55;;;;;;;;;1.25;1.25;;;;;8.59;59.84;101409.56;5029811;28;46354;-84
2022/02/19 11:00:24;;;;;;;;;2.00;1.00;;;;;9.02;59.98;101480.88;5030465;28;45900;-87
2022/02/19 11:02:50;;;;;;;;;2.00;2.00;;;;;8.65;59.55;101409.88;5011909;28;45826;-84
2022/02/19 11:05:17;;;;;;;;;1.50;1.00;;;;;9.10;59.43;101470.78;5012473;28;45749;-85
2022/02/19 11:07:45;;;;;;;;;2.50;1.50;;;;;8.58;59.41;101372.81;5029291;28;46204;-86
2022/02/19 11:10:13;;;;;;;;;1.00;1.00;;;;;8.45;59.13;101356.44;5012189;28;45815;-87
2022/02/19 11:12:40;;;;;;;;;1.75;1.00;;;;;9.00;58.98;101432.69;5029702;28;45600;-86
2022/02/19 11:15:07;;;;;;;;;1.75;0.75;;;;;8.34;58.91;101322.59;5030024;28;45718;-89
2022/02/19 11:17:36;;;;;;;;;2.00;2.00;;;;;8.67;58.88;101373.25;5011648;28;47915;-83
2022/02/19 11:20:08;;;;;;;;;1.00;1.00;;;;;9.14;58.45;101443.00;5012473;28;46015;-85
2022/02/19 11:22:36;;;;;;;;;1.00;1.00;;;;;8.93;58.32;101395.59;5014964;28;45548;-83
2022/02/19 11:25:04;;;;;;;;;0.75;0.75;;;;;9.22;58.28;101437.31;5015232;28;45696;-84
2022/02/19 11:27:35;;;;;;;;;1.00;0.75;;;;;8.24;58.25;101253.13;5033382;28;45544;-84
2022/02/19 11:30:04;;;;;;;;;0.00;0.00;;;;;9.39;57.93;101435.53;5015031;28;46335;-84
2022/02/19 11:32:32;;;;;;;;;1.00;0.25;;;;;8.69;57.62;101303.50;5033422;28;45267;-87
2022/02/19 11:34:58;;;;;;;;;1.25;1.25;;;;;9.37;57.52;101399.56;5033188;28;46200;-84
2022/02/19 11:37:25;;;;;;;;;1.50;1.00;;;;;9.45;57.48;101401.72;5014849;28;47223;-83
2022/02/19 11:40:23;;;;;;;;;0.75;0.00;;;;;9.77;57.62;101429.56;5032670;28;45741;-83